Time;durP1;ratioP1;P1;durP2;ratioP2;P2;SDS_P1;SDS_P2;PMS_P1;PMS_P2;Temp;Humidity;BMP_temperature;BMP_pressure;BME280_temperature;BME280_humidity;BME280_pressure;Samples;Min_cycle;Max_cycle;Signal;HPM_P1;HPM_P2
2020/12/03 00:00:43;;;;;;;32.75;14.75;;;2.30;87.80;;;;;;5105272;28;27328;-49
2020/12/03 00:03:43;;;;;;;26.70;12.77;;;2.30;87.80;;;;;;5104562;28;27415;-49
2020/12/03 00:06:33;;;;;;;27.55;14.80;;;2.30;87.80;;;;;;5104009;28;27341;-49
2020/12/03 00:09:19;;;;;;;26.98;14.52;;;2.30;87.90;;;;;;5104193;27;27448;-49
2020/12/03 00:12:03;;;;;;;27.05;13.38;;;2.30;87.90;;;;;;5105167;28;27446;-56
2020/12/03 00:14:48;;;;;;;27.65;15.30;;;2.30;87.90;;;;;;5105155;28;27418;-49
2020/12/03 00:17:33;;;;;;;28.05;14.00;;;2.30;87.80;;;;;;5104702;28;27422;-48
2020/12/03 00:20:18;;;;;;;28.90;13.07;;;2.30;88.00;;;;;;5104420;28;27481;-49
2020/12/03 00:23:03;;;;;;;31.42;14.57;;;2.30;87.90;;;;;;5104648;28;27521;-48
2020/12/03 00:25:49;;;;;;;26.63;13.32;;;2.30;88.00;;;;;;5104746;28;27419;-48
2020/12/03 00:28:40;;;;;;;34.08;15.45;;;2.30;87.90;;;;;;5105310;28;27419;-48
2020/12/03 00:31:25;;;;;;;25.70;13.60;;;2.30;88.00;;;;;;5104552;28;27473;-50
2020/12/03 00:34:10;;;;;;;30.38;13.80;;;2.30;87.80;;;;;;5103935;28;27458;-49
2020/12/03 00:36:54;;;;;;;30.95;15.38;;;2.30;87.90;;;;;;5104714;28;27356;-49
2020/12/03 00:39:39;;;;;;;25.63;13.45;;;2.30;87.90;;;;;;5104628;28;27386;-50
2020/12/03 00:42:23;;;;;;;28.63;14.10;;;2.30;87.90;;;;;;5104398;28;27386;-49
2020/12/03 00:45:09;;;;;;;26.38;13.57;;;2.30;87.80;;;;;;5104480;28;27316;-55
2020/12/03 00:47:54;;;;;;;32.60;13.68;;;2.30;87.80;;;;;;5103690;28;27381;-48
2020/12/03 00:50:39;;;;;;;28.58;14.07;;;2.30;87.80;;;;;;5103041;28;27365;-49
2020/12/03 00:53:24;;;;;;;30.38;15.05;;;2.30;87.80;;;;;;5104994;28;27343;-55
2020/12/03 00:56:09;;;;;;;28.55;12.90;;;2.30;87.90;;;;;;5107887;28;27336;-50
2020/12/03 00:58:53;;;;;;;25.95;13.57;;;2.30;87.90;;;;;;5104813;28;27316;-49
2020/12/03 01:01:38;;;;;;;28.38;13.73;;;2.30;87.80;;;;;;5107965;28;27860;-49
2020/12/03 01:04:22;;;;;;;27.90;13.93;;;2.30;87.80;;;;;;5108039;28;27402;-49
2020/12/03 01:07:07;;;;;;;33.85;14.35;;;2.30;87.80;;;;;;5107803;28;27468;-49
2020/12/03 01:09:52;;;;;;;28.52;13.80;;;2.30;87.80;;;;;;5104418;28;27350;-49
2020/12/03 01:12:36;;;;;;;28.50;14.18;;;2.20;87.80;;;;;;5107532;28;27347;-48
2020/12/03 01:15:21;;;;;;;30.58;13.57;;;2.30;87.90;;;;;;5107520;28;27409;-48
2020/12/03 01:18:06;;;;;;;25.23;14.07;;;2.20;87.80;;;;;;5103547;28;27458;-49
2020/12/03 01:20:50;;;;;;;29.77;13.73;;;2.30;88.00;;;;;;5107574;28;27399;-51
2020/12/03 01:23:35;;;;;;;27.70;13.23;;;2.30;88.00;;;;;;5107360;28;27471;-48
2020/12/03 01:26:20;;;;;;;28.42;13.75;;;2.30;88.00;;;;;;5107473;28;27568;-48
2020/12/03 01:29:04;;;;;;;26.00;12.90;;;2.30;88.00;;;;;;5106597;28;27430;-48
2020/12/03 01:31:49;;;;;;;26.00;14.23;;;2.30;87.90;;;;;;5107957;28;27441;-50
2020/12/03 01:34:34;;;;;;;32.05;14.10;;;2.20;87.90;;;;;;5107161;28;27491;-49
2020/12/03 01:37:19;;;;;;;30.02;15.10;;;2.30;88.00;;;;;;5107129;28;27430;-49
2020/12/03 01:40:11;;;;;;;32.13;15.88;;;2.20;88.00;;;;;;5107565;28;27461;-50
2020/12/03 01:42:56;;;;;;;32.20;15.80;;;2.20;88.00;;;;;;5107949;28;27314;-50
2020/12/03 01:45:55;;;;;;;34.25;15.38;;;2.20;87.80;;;;;;5106796;28;27400;-48
2020/12/03 01:48:46;;;;;;;29.13;14.35;;;2.20;88.00;;;;;;5107322;28;27571;-48
2020/12/03 01:51:34;;;;;;;31.00;14.98;;;2.20;88.00;;;;;;5107295;28;27364;-55
2020/12/03 01:54:22;;;;;;;29.95;14.48;;;2.20;88.00;;;;;;5107196;28;27377;-55
2020/12/03 01:57:09;;;;;;;28.42;14.38;;;2.20;87.90;;;;;;5107235;28;27368;-51
2020/12/03 02:00:07;;;;;;;29.95;15.02;;;2.20;88.00;;;;;;5107073;28;27390;-48
2020/12/03 02:02:57;;;;;;;32.10;15.35;;;2.20;88.10;;;;;;5102232;28;27421;-50
2020/12/03 02:05:42;;;;;;;29.77;14.52;;;2.20;88.10;;;;;;5103533;28;27398;-49
2020/12/03 02:08:26;;;;;;;29.08;15.45;;;2.20;88.10;;;;;;5106668;28;27426;-51
2020/12/03 02:11:10;;;;;;;30.88;14.52;;;2.10;88.10;;;;;;5106193;28;27633;-49
2020/12/03 02:13:59;;;;;;;28.17;13.48;;;2.10;88.10;;;;;;5106971;28;27455;-49
2020/12/03 02:16:44;;;;;;;28.60;14.68;;;2.20;88.10;;;;;;5107390;28;27333;-48
2020/12/03 02:19:30;;;;;;;29.08;14.82;;;2.20;88.10;;;;;;5107434;28;27413;-49
2020/12/03 02:22:15;;;;;;;31.85;15.75;;;2.20;88.30;;;;;;5106609;28;27312;-49
2020/12/03 02:24:59;;;;;;;29.33;14.80;;;2.20;88.20;;;;;;5106763;28;27398;-49
2020/12/03 02:27:44;;;;;;;34.72;15.70;;;2.10;88.20;;;;;;5105337;28;27394;-50
2020/12/03 02:30:29;;;;;;;35.80;15.43;;;2.10;88.30;;;;;;5106616;28;27331;-51
2020/12/03 02:33:14;;;;;;;29.80;14.88;;;2.20;88.40;;;;;;5106418;28;27441;-49
2020/12/03 02:35:58;;;;;;;34.28;15.60;;;2.10;88.20;;;;;;5106612;28;27316;-49
2020/12/03 02:38:43;;;;;;;30.40;14.77;;;2.20;88.30;;;;;;5106117;28;27333;-49
2020/12/03 02:41:30;;;;;;;31.55;15.05;;;2.10;88.30;;;;;;5106468;28;27404;-49
2020/12/03 02:44:58;;;;;;;30.50;15.60;;;2.10;88.30;;;;;;5084116;28;27453;-48
2020/12/03 02:47:43;;;;;;;31.70;15.98;;;2.10;88.20;;;;;;5063154;28;27381;-50
2020/12/03 02:50:37;;;;;;;31.33;15.85;;;2.10;88.20;;;;;;5063520;28;27517;-48
2020/12/03 02:53:41;;;;;;;26.60;14.15;;;2.20;88.40;;;;;;5064148;28;27672;-49
2020/12/03 02:56:27;;;;;;;29.50;15.32;;;2.10;88.30;;;;;;5064397;28;27524;-48
2020/12/03 02:59:51;;;;;;;31.38;14.40;;;2.10;88.30;;;;;;5042810;28;27458;-50
2020/12/03 03:02:47;;;;;;;30.30;14.98;;;2.10;88.30;;;;;;5042462;28;27056;-49
2020/12/03 03:05:52;;;;;;;30.40;14.88;;;2.10;88.30;;;;;;5042866;28;28073;-49
2020/12/03 03:08:37;;;;;;;32.17;15.57;;;2.10;88.30;;;;;;5042774;28;27440;-48
2020/12/03 03:11:21;;;;;;;30.77;14.68;;;2.10;88.20;;;;;;5048124;28;27475;-48
2020/12/03 03:14:31;;;;;;;31.88;15.60;;;2.10;88.30;;;;;;5061199;28;27624;-53
2020/12/03 03:17:55;;;;;;;27.90;14.93;;;2.20;88.40;;;;;;5083609;28;27563;-48
2020/12/03 03:21:18;;;;;;;30.70;14.48;;;2.10;88.20;;;;;;5082463;28;27469;-51
2020/12/03 03:24:03;;;;;;;32.38;15.27;;;2.10;88.30;;;;;;5083739;28;27458;-49
2020/12/03 03:27:12;;;;;;;28.67;14.93;;;2.10;88.20;;;;;;5022740;28;27643;-50
2020/12/03 03:29:57;;;;;;;32.30;15.00;;;2.10;88.30;;;;;;5022891;28;27901;-50
2020/12/03 03:32:41;;;;;;;27.48;14.40;;;2.20;88.40;;;;;;5023265;28;27456;-51
2020/12/03 03:35:44;;;;;;;30.67;15.45;;;2.10;88.30;;;;;;5023377;28;27452;-49
2020/12/03 03:38:29;;;;;;;25.83;14.38;;;2.20;88.40;;;;;;5042798;28;27453;-53
2020/12/03 03:41:14;;;;;;;31.17;15.40;;;2.20;88.40;;;;;;5043018;28;27503;-56
2020/12/03 03:43:59;;;;;;;26.98;13.25;;;2.10;88.40;;;;;;5042357;28;27456;-51
2020/12/03 03:46:43;;;;;;;25.48;13.85;;;2.10;88.30;;;;;;5042662;28;27465;-49
2020/12/03 03:49:28;;;;;;;31.33;15.45;;;2.20;88.40;;;;;;5028970;28;27561;-51
2020/12/03 03:52:12;;;;;;;30.10;14.63;;;2.10;88.40;;;;;;5042394;28;27460;-50
2020/12/03 03:54:57;;;;;;;27.35;13.50;;;2.20;88.40;;;;;;5042760;28;27572;-50
2020/12/03 03:57:42;;;;;;;28.15;13.45;;;2.10;88.40;;;;;;5051693;28;27523;-50
2020/12/03 04:00:27;;;;;;;28.80;14.30;;;2.20;88.50;;;;;;5062651;28;27473;-56
2020/12/03 04:03:13;;;;;;;24.20;12.55;;;2.10;88.40;;;;;;5061926;28;27653;-49
2020/12/03 04:05:58;;;;;;;23.52;13.02;;;2.10;88.40;;;;;;5063380;28;27504;-47
2020/12/03 04:08:42;;;;;;;30.67;14.55;;;2.20;88.40;;;;;;5063054;28;27599;-49
2020/12/03 04:11:27;;;;;;;27.33;13.75;;;2.20;88.40;;;;;;5062829;28;27564;-48
2020/12/03 04:14:12;;;;;;;26.73;14.98;;;2.10;88.30;;;;;;5062700;28;27507;-50
2020/12/03 04:16:57;;;;;;;25.42;13.52;;;2.10;88.30;;;;;;5062667;28;27509;-47
2020/12/03 04:19:42;;;;;;;24.83;13.30;;;2.10;88.30;;;;;;5062742;28;27538;-56
2020/12/03 04:22:28;;;;;;;25.42;13.18;;;2.10;88.30;;;;;;5062422;28;27542;-50
2020/12/03 04:25:13;;;;;;;27.65;14.02;;;2.20;88.40;;;;;;5103600;28;27584;-49
2020/12/03 04:27:58;;;;;;;22.05;12.30;;;2.20;88.50;;;;;;5104615;28;27423;-48
2020/12/03 04:30:43;;;;;;;25.42;13.63;;;2.20;88.40;;;;;;5104558;28;27497;-50
2020/12/03 04:33:27;;;;;;;25.38;13.73;;;2.10;88.40;;;;;;5104817;28;27456;-49
2020/12/03 04:36:11;;;;;;;23.67;12.55;;;2.10;88.40;;;;;;5104708;28;27449;-49
2020/12/03 04:38:56;;;;;;;25.63;13.65;;;2.10;88.40;;;;;;5100371;28;27324;-49
2020/12/03 04:41:40;;;;;;;24.42;12.90;;;2.10;88.40;;;;;;5104851;28;27355;-49
2020/12/03 04:44:30;;;;;;;26.05;13.90;;;2.10;88.40;;;;;;5105518;28;27372;-49
2020/12/03 04:47:45;;;;;;;26.08;13.02;;;2.10;88.50;;;;;;5104175;28;27503;-49
2020/12/03 04:51:11;;;;;;;26.25;13.20;;;2.20;88.50;;;;;;5101275;28;27457;-48
2020/12/03 04:54:00;;;;;;;28.88;13.13;;;2.10;88.50;;;;;;5082673;28;27392;-48
2020/12/03 04:57:02;;;;;;;23.98;12.40;;;2.10;88.50;;;;;;5104535;28;27324;-50
2020/12/03 05:00:09;;;;;;;28.35;14.20;;;2.10;88.70;;;;;;5103438;28;27820;-50
2020/12/03 05:03:12;;;;;;;22.58;12.02;;;2.10;88.70;;;;;;5103384;28;27348;-48
2020/12/03 05:05:56;;;;;;;23.00;12.45;;;2.20;88.70;;;;;;5104408;28;27468;-51
2020/12/03 05:08:51;;;;;;;26.17;12.75;;;2.10;88.80;;;;;;5101062;28;27404;-48
2020/12/03 05:11:40;;;;;;;22.75;12.18;;;2.10;88.80;;;;;;5103244;28;27482;-50
2020/12/03 05:14:28;;;;;;;20.23;11.85;;;2.20;88.80;;;;;;5103275;28;27401;-49
2020/12/03 05:17:34;;;;;;;22.67;12.50;;;2.20;88.80;;;;;;5103682;28;26923;-48
2020/12/03 05:20:37;;;;;;;20.00;11.48;;;2.20;88.70;;;;;;5104533;28;27725;-48
2020/12/03 05:23:31;;;;;;;20.38;11.63;;;2.20;88.70;;;;;;5103887;28;27320;-55
2020/12/03 05:26:18;;;;;;;24.17;12.40;;;2.20;89.50;;;;;;5103817;28;27395;-48
2020/12/03 05:29:08;;;;;;;23.67;13.43;;;2.20;88.70;;;;;;5104144;28;27422;-50
2020/12/03 05:31:52;;;;;;;24.27;13.38;;;2.20;88.60;;;;;;5104009;28;27389;-48
2020/12/03 05:34:37;;;;;;;19.83;11.95;;;2.10;88.50;;;;;;5074461;28;27410;-50
2020/12/03 05:37:22;;;;;;;19.60;11.93;;;2.10;88.50;;;;;;5106985;27;27424;-48
2020/12/03 05:40:17;;;;;;;22.75;12.25;;;2.20;88.70;;;;;;5107527;28;27421;-50
2020/12/03 05:43:02;;;;;;;21.92;11.98;;;2.20;88.70;;;;;;5107221;28;27331;-55
2020/12/03 05:45:46;;;;;;;22.30;12.65;;;2.10;88.60;;;;;;5107452;28;27442;-55
2020/12/03 05:48:31;;;;;;;23.13;11.52;;;2.10;88.70;;;;;;5105679;28;27663;-56
2020/12/03 05:51:23;;;;;;;21.23;12.02;;;2.10;88.70;;;;;;5107483;28;27450;-56
2020/12/03 05:54:18;;;;;;;23.67;11.98;;;2.10;88.70;;;;;;5107150;28;27419;-56
2020/12/03 05:57:03;;;;;;;25.58;13.35;;;2.10;88.70;;;;;;5107194;28;27419;-49
2020/12/03 05:59:50;;;;;;;20.08;12.15;;;2.10;88.60;;;;;;5106913;28;27465;-56
2020/12/03 06:02:56;;;;;;;21.25;12.40;;;2.10;88.60;;;;;;5107237;28;27433;-56
2020/12/03 06:06:10;;;;;;;20.27;11.80;;;2.10;88.60;;;;;;5107191;28;27471;-50
2020/12/03 06:09:02;;;;;;;19.88;11.02;;;2.10;88.60;;;;;;5106768;28;27896;-55
2020/12/03 06:12:10;;;;;;;19.20;11.43;;;2.10;88.70;;;;;;5105921;28;27388;-55
2020/12/03 06:15:06;;;;;;;25.85;12.32;;;2.10;88.60;;;;;;5105572;28;27320;-56
2020/12/03 06:17:59;;;;;;;23.33;11.77;;;2.10;88.50;;;;;;5106097;28;27427;-54
2020/12/03 06:21:07;;;;;;;24.58;12.38;;;2.10;88.60;;;;;;5106145;28;27919;-55
2020/12/03 06:24:01;;;;;;;18.85;10.63;;;2.10;88.70;;;;;;5104999;28;27415;-55
2020/12/03 06:27:32;;;;;;;25.67;13.48;;;2.10;88.70;;;;;;5106475;28;27456;-55
2020/12/03 06:30:53;;;;;;;23.98;14.20;;;2.10;88.80;;;;;;5090646;28;27476;-55
2020/12/03 06:33:55;;;;;;;23.67;13.00;;;2.10;88.70;;;;;;5029849;28;28066;-56
2020/12/03 06:36:45;;;;;;;21.60;12.50;;;2.10;88.70;;;;;;5105602;28;27474;-56
2020/12/03 06:39:54;;;;;;;21.05;12.98;;;2.10;88.70;;;;;;5091626;28;27385;-49
2020/12/03 06:42:41;;;;;;;22.45;12.45;;;2.10;88.70;;;;;;5106213;28;27461;-56
2020/12/03 06:46:03;;;;;;;23.33;14.25;;;2.10;88.70;;;;;;5092454;28;27308;-56
2020/12/03 06:49:16;;;;;;;25.75;13.43;;;2.10;88.60;;;;;;5105223;27;27423;-55
2020/12/03 06:52:22;;;;;;;21.67;12.57;;;2.10;88.70;;;;;;5106133;28;27402;-55
2020/12/03 06:55:10;;;;;;;23.67;13.38;;;2.10;88.70;;;;;;5106296;28;27422;-55
2020/12/03 06:58:35;;;;;;;23.48;13.07;;;2.10;88.70;;;;;;5106068;28;27932;-56
2020/12/03 07:01:32;;;;;;;24.60;12.32;;;2.10;88.70;;;;;;5101911;28;27316;-56
2020/12/03 07:04:57;;;;;;;24.30;12.90;;;2.10;89.40;;;;;;5105414;28;27473;-56
2020/12/03 07:08:10;;;;;;;25.25;13.30;;;2.10;88.70;;;;;;5104856;28;27395;-55
2020/12/03 07:11:25;;;;;;;23.65;12.50;;;2.10;88.50;;;;;;5101833;28;27448;-56
2020/12/03 07:14:49;;;;;;;21.30;11.52;;;2.20;88.70;;;;;;5105963;28;27463;-53
2020/12/03 07:18:12;;;;;;;20.17;12.40;;;2.20;88.60;;;;;;5105770;28;27465;-56
2020/12/03 07:21:37;;;;;;;20.70;11.90;;;2.20;88.60;;;;;;5043186;28;27645;-56
2020/12/03 07:24:29;;;;;;;20.95;12.68;;;2.20;88.50;;;;;;5042947;28;27432;-55
2020/12/03 07:27:38;;;;;;;20.40;12.18;;;2.20;88.50;;;;;;5029340;28;27461;-49
2020/12/03 07:30:43;;;;;;;22.85;12.38;;;2.20;88.40;;;;;;5043040;28;27548;-51
2020/12/03 07:33:58;;;;;;;22.52;13.00;;;2.20;88.50;;;;;;5043216;28;27511;-56
2020/12/03 07:37:24;;;;;;;20.95;12.43;;;2.30;88.40;;;;;;5042638;28;27522;-56
2020/12/03 07:40:14;;;;;;;22.27;11.88;;;2.30;88.40;;;;;;5043073;28;27534;-56
2020/12/03 07:43:14;;;;;;;20.20;12.70;;;2.30;88.10;;;;;;5013444;28;27539;-52
2020/12/03 07:46:01;;;;;;;22.48;12.95;;;2.30;87.90;;;;;;5043095;28;27581;-50
2020/12/03 07:48:46;;;;;;;21.38;12.82;;;2.40;87.60;;;;;;5043321;28;27532;-48
2020/12/03 07:51:31;;;;;;;20.48;12.45;;;2.40;87.60;;;;;;5042976;28;27617;-50
2020/12/03 07:54:15;;;;;;;18.75;11.15;;;2.50;87.60;;;;;;5042719;28;27472;-48
2020/12/03 07:57:00;;;;;;;20.15;12.05;;;2.50;87.50;;;;;;5095636;28;27481;-48
2020/12/03 07:59:45;;;;;;;21.55;12.25;;;2.50;87.30;;;;;;5089745;28;27491;-49
2020/12/03 08:02:52;;;;;;;19.77;11.23;;;2.60;87.30;;;;;;5105204;28;27402;-50
2020/12/03 08:05:39;;;;;;;18.92;11.98;;;2.60;87.00;;;;;;5104427;28;27579;-48
2020/12/03 08:08:24;;;;;;;21.67;11.60;;;2.60;87.00;;;;;;5104598;28;27347;-48
2020/12/03 08:11:38;;;;;;;20.17;11.27;;;2.70;87.00;;;;;;5105419;28;27449;-51
2020/12/03 08:14:28;;;;;;;19.58;11.43;;;2.70;86.60;;;;;;5105075;28;27419;-49
2020/12/03 08:17:33;;;;;;;19.05;11.80;;;2.70;86.60;;;;;;5105184;28;27468;-49
2020/12/03 08:20:19;;;;;;;19.98;12.43;;;2.70;86.40;;;;;;5105065;28;26852;-49
2020/12/03 08:23:11;;;;;;;18.35;11.52;;;2.70;86.70;;;;;;5105354;28;27455;-49
2020/12/03 08:25:55;;;;;;;18.95;11.57;;;2.70;86.80;;;;;;5104632;28;27395;-48
2020/12/03 08:28:40;;;;;;;20.52;11.75;;;2.80;86.60;;;;;;5104761;28;27370;-49
2020/12/03 08:31:24;;;;;;;18.05;11.30;;;2.80;86.20;;;;;;5104249;28;27308;-48
2020/12/03 08:34:09;;;;;;;16.67;10.95;;;2.90;86.10;;;;;;5104470;28;27878;-49
2020/12/03 08:36:53;;;;;;;20.83;11.18;;;3.00;85.90;;;;;;5104474;28;27601;-48
2020/12/03 08:39:38;;;;;;;18.83;11.00;;;3.00;85.90;;;;;;5089431;28;27401;-48
2020/12/03 08:42:23;;;;;;;19.65;11.68;;;3.00;85.70;;;;;;5104588;28;27381;-48
2020/12/03 08:45:11;;;;;;;18.83;11.52;;;3.10;85.40;;;;;;5086229;28;27971;-56
2020/12/03 08:47:56;;;;;;;17.45;11.45;;;3.10;85.50;;;;;;5103435;28;27370;-48
2020/12/03 08:50:41;;;;;;;17.75;11.05;;;3.10;85.30;;;;;;5089379;28;27402;-49
2020/12/03 08:53:29;;;;;;;17.55;10.85;;;3.20;85.20;;;;;;5103483;28;27386;-52
2020/12/03 08:56:17;;;;;;;17.40;10.88;;;3.30;85.10;;;;;;5100899;28;27447;-49
2020/12/03 08:59:07;;;;;;;17.00;10.63;;;3.30;84.80;;;;;;5103478;28;27395;-49
2020/12/03 09:02:08;;;;;;;19.58;10.95;;;3.30;84.80;;;;;;5105129;28;27502;-49
2020/12/03 09:04:53;;;;;;;23.55;12.38;;;3.40;84.80;;;;;;5103346;28;26911;-51
2020/12/03 09:07:42;;;;;;;22.77;12.50;;;3.50;84.50;;;;;;5103978;28;28106;-49
2020/12/03 09:10:27;;;;;;;21.38;11.63;;;3.50;84.20;;;;;;5100524;28;27497;-48
2020/12/03 09:13:14;;;;;;;22.33;12.55;;;3.60;84.00;;;;;;5106886;28;27320;-50
2020/12/03 09:15:59;;;;;;;18.05;10.50;;;3.60;83.90;;;;;;5106901;28;27501;-49
2020/12/03 09:18:44;;;;;;;20.85;12.82;;;3.70;83.90;;;;;;5107026;28;27474;-51
2020/12/03 09:21:29;;;;;;;20.85;12.23;;;3.70;83.50;;;;;;5107493;28;27403;-50
2020/12/03 09:24:14;;;;;;;17.63;10.23;;;3.80;83.50;;;;;;5103482;28;27412;-49
2020/12/03 09:27:02;;;;;;;19.95;11.00;;;3.90;83.20;;;;;;5106664;28;27434;-48
2020/12/03 09:29:50;;;;;;;19.98;12.68;;;4.00;83.10;;;;;;5107306;28;27943;-50
2020/12/03 09:32:38;;;;;;;21.90;11.70;;;4.10;82.60;;;;;;5107319;28;27316;-49
2020/12/03 09:35:23;;;;;;;20.58;10.63;;;4.20;82.10;;;;;;5092743;28;27430;-56
2020/12/03 09:38:08;;;;;;;17.48;10.45;;;4.20;81.80;;;;;;5108092;28;27323;-48
2020/12/03 09:40:53;;;;;;;21.90;11.52;;;4.30;81.80;;;;;;5107206;28;28071;-50
2020/12/03 09:43:40;;;;;;;15.60;10.30;;;4.30;81.50;;;;;;5107505;28;27479;-49
2020/12/03 09:46:28;;;;;;;18.17;10.65;;;4.30;81.50;;;;;;5092447;28;27440;-50
2020/12/03 09:49:16;;;;;;;16.10;10.50;;;4.30;81.50;;;;;;5107088;28;27385;-53
2020/12/03 09:52:04;;;;;;;19.52;11.20;;;4.40;81.40;;;;;;5106979;28;27398;-49
2020/12/03 09:54:49;;;;;;;16.88;11.10;;;4.40;81.30;;;;;;5103897;28;27529;-48
2020/12/03 09:57:33;;;;;;;20.10;11.75;;;4.40;81.40;;;;;;5107344;28;27513;-56
2020/12/03 10:00:20;;;;;;;17.48;11.18;;;4.50;81.60;;;;;;5091849;28;27511;-48
2020/12/03 10:03:35;;;;;;;16.80;10.45;;;4.60;81.40;;;;;;5105870;28;27588;-48
2020/12/03 10:06:23;;;;;;;14.68;10.10;;;4.70;81.00;;;;;;5106015;28;27423;-48
2020/12/03 10:09:28;;;;;;;19.38;10.13;;;4.90;80.70;;;;;;5103181;28;27390;-50
2020/12/03 10:12:29;;;;;;;20.60;10.18;;;5.00;80.30;;;;;;5106837;28;27352;-48
2020/12/03 10:15:20;;;;;;;14.73;9.45;;;5.10;80.00;;;;;;5103390;28;27975;-48
2020/12/03 10:18:09;;;;;;;17.75;9.75;;;5.20;80.70;;;;;;5107300;28;27389;-49
2020/12/03 10:20:54;;;;;;;15.32;9.85;;;5.20;79.80;;;;;;5106929;28;27407;-50
2020/12/03 10:23:42;;;;;;;16.38;10.40;;;5.20;79.50;;;;;;5104906;28;27470;-51
2020/12/03 10:26:39;;;;;;;15.65;9.98;;;5.20;79.60;;;;;;5106060;28;27888;-52
2020/12/03 10:29:33;;;;;;;17.63;10.40;;;5.30;79.60;;;;;;5105775;28;27394;-49
2020/12/03 10:32:18;;;;;;;16.73;9.98;;;5.30;79.60;;;;;;5106772;28;27346;-48
2020/12/03 10:35:04;;;;;;;14.40;8.98;;;5.40;79.20;;;;;;5106179;28;27325;-49
2020/12/03 10:37:54;;;;;;;14.10;9.13;;;5.50;79.10;;;;;;5105816;28;27361;-48
2020/12/03 10:40:38;;;;;;;19.40;10.00;;;5.50;78.80;;;;;;5105425;28;27427;-50
2020/12/03 10:43:29;;;;;;;15.32;9.07;;;5.60;78.80;;;;;;5103663;28;27431;-51
2020/12/03 10:46:18;;;;;;;15.73;9.85;;;5.60;78.70;;;;;;5106555;28;27358;-49
2020/12/03 10:49:03;;;;;;;13.90;8.85;;;5.60;78.70;;;;;;5106358;28;27838;-48
2020/12/03 10:51:48;;;;;;;14.93;8.98;;;5.70;78.50;;;;;;5105275;28;27451;-49
2020/12/03 10:54:33;;;;;;;14.90;8.40;;;5.70;78.40;;;;;;5105705;28;26861;-48
2020/12/03 10:57:21;;;;;;;15.45;8.43;;;5.80;78.40;;;;;;5106108;28;27457;-56
2020/12/03 11:00:08;;;;;;;17.17;8.85;;;5.80;78.30;;;;;;5106000;28;27508;-50
2020/12/03 11:02:55;;;;;;;12.60;8.18;;;5.80;78.30;;;;;;5105685;28;27303;-48
2020/12/03 11:05:44;;;;;;;15.38;9.02;;;5.70;78.10;;;;;;5106185;28;27351;-49
2020/12/03 11:08:35;;;;;;;14.52;9.15;;;5.80;78.40;;;;;;5105794;28;27413;-56
2020/12/03 11:11:20;;;;;;;15.80;8.13;;;5.80;78.30;;;;;;5105805;28;27327;-48
2020/12/03 11:14:08;;;;;;;16.17;9.10;;;5.80;78.20;;;;;;5105280;28;27391;-48
2020/12/03 11:17:23;;;;;;;15.55;8.70;;;5.80;78.10;;;;;;5105736;28;27476;-48
2020/12/03 11:20:08;;;;;;;16.42;8.95;;;5.80;78.10;;;;;;5081727;27;27503;-48
2020/12/03 11:22:58;;;;;;;18.45;10.50;;;5.80;78.00;;;;;;5105394;28;27471;-48
2020/12/03 11:25:43;;;;;;;17.90;10.02;;;5.80;78.40;;;;;;5105849;28;27324;-48
2020/12/03 11:28:34;;;;;;;21.60;10.95;;;5.80;78.30;;;;;;5101235;28;27384;-48
2020/12/03 11:31:19;;;;;;;17.25;10.07;;;5.80;78.20;;;;;;5105453;28;27413;-56
2020/12/03 11:34:04;;;;;;;17.95;9.70;;;5.80;77.80;;;;;;5104231;27;27513;-48
2020/12/03 11:36:49;;;;;;;18.35;9.60;;;5.80;77.60;;;;;;5106295;28;27423;-50
2020/12/03 11:39:33;;;;;;;17.65;8.82;;;5.90;77.70;;;;;;5105457;28;27457;-47
2020/12/03 11:48:32;;;;;;;17.38;9.32;;;6.00;77.40;;;;;;5105245;28;27320;-48
2020/12/03 11:51:27;;;;;;;14.35;8.13;;;6.00;77.30;;;;;;5104689;28;27459;-47
2020/12/03 11:54:12;;;;;;;15.90;9.32;;;6.10;77.00;;;;;;5105460;28;27400;-47
2020/12/03 11:56:57;;;;;;;14.90;8.65;;;6.10;77.10;;;;;;5105051;28;27474;-52
2020/12/03 11:59:41;;;;;;;15.00;8.75;;;6.10;76.80;;;;;;5105327;28;27528;-49
2020/12/03 12:02:29;;;;;;;16.77;9.25;;;6.10;77.00;;;;;;5105568;28;27476;-50
2020/12/03 12:05:24;;;;;;;12.95;8.05;;;6.20;76.50;;;;;;5105285;28;27362;-49
2020/12/03 12:14:12;;;;;;;17.38;8.82;;;6.30;75.30;;;;;;5099720;28;27659;-50
2020/12/03 12:16:56;;;;;;;16.55;8.23;;;6.30;75.70;;;;;;5105136;28;27297;-48
2020/12/03 12:19:43;;;;;;;18.80;9.18;;;6.40;75.90;;;;;;5105106;28;27413;-47
2020/12/03 12:22:27;;;;;;;18.33;8.98;;;6.50;75.50;;;;;;5105004;28;27417;-49
2020/12/03 12:25:13;;;;;;;18.67;10.00;;;6.50;75.70;;;;;;5101694;28;27402;-49
2020/12/03 12:27:57;;;;;;;16.90;9.10;;;6.50;75.80;;;;;;5104619;28;27407;-50
2020/12/03 12:30:42;;;;;;;17.98;9.65;;;6.50;75.40;;;;;;5104810;28;27335;-47
2020/12/03 12:33:26;;;;;;;15.68;9.25;;;6.50;75.90;;;;;;5104545;28;27405;-49
2020/12/03 12:36:11;;;;;;;19.45;10.57;;;6.50;75.40;;;;;;5104257;28;27396;-48
2020/12/03 12:38:56;;;;;;;18.02;10.63;;;6.50;75.50;;;;;;5104866;28;27362;-50
2020/12/03 12:41:41;;;;;;;16.48;9.63;;;6.50;75.80;;;;;;5105068;28;27402;-50
2020/12/03 12:44:26;;;;;;;15.25;8.38;;;6.60;75.80;;;;;;5104670;28;27344;-48
2020/12/03 12:47:10;;;;;;;20.42;10.30;;;6.60;75.70;;;;;;5107430;28;27350;-50
2020/12/03 12:49:55;;;;;;;16.42;9.60;;;6.70;75.50;;;;;;5104403;28;27363;-48
2020/12/03 12:52:40;;;;;;;17.13;9.70;;;6.70;75.50;;;;;;5108602;28;27328;-47
2020/12/03 12:55:25;;;;;;;14.95;9.32;;;6.80;75.50;;;;;;5108576;28;27403;-49
2020/12/03 12:58:09;;;;;;;16.63;9.68;;;6.90;75.50;;;;;;5108247;28;27405;-48
2020/12/03 13:00:54;;;;;;;13.95;8.82;;;6.90;75.40;;;;;;5107972;28;27404;-49
2020/12/03 13:03:38;;;;;;;17.52;10.35;;;7.00;75.40;;;;;;5105632;28;27941;-48
2020/12/03 13:06:23;;;;;;;15.52;8.95;;;7.00;75.40;;;;;;5107810;28;27386;-49
2020/12/03 13:09:08;;;;;;;18.17;10.00;;;7.00;75.20;;;;;;5107855;28;27391;-48
2020/12/03 13:11:53;;;;;;;17.25;9.65;;;7.00;75.00;;;;;;5107947;28;27322;-49
2020/12/03 13:14:37;;;;;;;18.05;8.90;;;7.00;75.10;;;;;;5107614;28;27351;-47
2020/12/03 13:17:22;;;;;;;18.17;9.23;;;7.00;75.30;;;;;;5107888;28;27453;-49
2020/12/03 13:20:06;;;;;;;16.30;9.45;;;6.90;75.30;;;;;;5107903;28;27469;-48
2020/12/03 13:22:51;;;;;;;13.60;9.13;;;6.90;75.50;;;;;;5107837;28;27468;-49
2020/12/03 13:25:35;;;;;;;14.65;8.95;;;6.80;75.60;;;;;;5107762;28;28080;-48
2020/12/03 13:28:20;;;;;;;13.98;9.15;;;6.80;75.90;;;;;;5107449;28;27415;-47
2020/12/03 13:31:04;;;;;;;17.17;9.65;;;6.70;75.70;;;;;;5107238;28;27458;-50
2020/12/03 13:33:50;;;;;;;20.15;9.63;;;6.70;75.90;;;;;;5107701;28;27481;-49
2020/12/03 13:36:35;;;;;;;14.07;9.23;;;6.60;75.60;;;;;;5107003;28;27984;-50
2020/12/03 13:39:20;;;;;;;17.52;10.27;;;6.60;75.50;;;;;;5107219;28;27445;-48
2020/12/03 13:42:05;;;;;;;18.63;9.85;;;6.50;75.70;;;;;;5107269;28;26906;-48
2020/12/03 13:44:49;;;;;;;15.57;8.98;;;6.50;75.70;;;;;;5107239;28;27434;-50
2020/12/03 13:47:34;;;;;;;17.80;10.30;;;6.40;75.90;;;;;;5107282;28;28073;-47
2020/12/03 13:50:19;;;;;;;17.05;9.73;;;6.40;75.90;;;;;;5107383;28;27462;-51
2020/12/03 13:53:04;;;;;;;14.18;8.82;;;6.30;75.90;;;;;;5107451;28;27456;-49
2020/12/03 13:55:49;;;;;;;16.77;8.75;;;6.30;75.90;;;;;;5107349;28;27398;-48
2020/12/03 13:58:36;;;;;;;15.60;8.60;;;6.30;76.20;;;;;;5106479;28;27473;-47
2020/12/03 14:01:21;;;;;;;13.70;8.70;;;6.20;76.30;;;;;;5107760;28;27482;-48
2020/12/03 14:04:06;;;;;;;12.30;8.32;;;6.20;76.20;;;;;;5105882;28;27430;-47
2020/12/03 14:06:50;;;;;;;16.45;9.27;;;6.10;76.10;;;;;;5106244;28;27420;-50
2020/12/03 14:09:35;;;;;;;14.38;8.63;;;6.10;76.60;;;;;;5106736;28;27991;-48
2020/12/03 14:12:20;;;;;;;15.05;9.10;;;6.10;77.10;;;;;;5106745;28;27466;-57
2020/12/03 14:15:05;;;;;;;13.70;8.52;;;6.20;76.90;;;;;;5107434;28;27439;-57
2020/12/03 14:17:50;;;;;;;12.55;7.57;;;6.20;76.70;;;;;;5107102;28;27458;-49
2020/12/03 14:20:34;;;;;;;14.63;8.13;;;6.20;76.60;;;;;;5106599;28;27467;-48
2020/12/03 14:23:18;;;;;;;12.80;8.55;;;6.30;76.70;;;;;;5102765;28;27521;-47
2020/12/03 14:26:04;;;;;;;11.43;7.50;;;6.20;76.10;;;;;;5106434;28;27348;-48
2020/12/03 14:28:49;;;;;;;11.52;8.00;;;6.10;76.60;;;;;;5103073;28;27464;-50
2020/12/03 14:31:33;;;;;;;13.07;7.40;;;5.90;75.40;;;;;;5106421;28;27612;-53
2020/12/03 14:34:18;;;;;;;12.38;8.05;;;5.80;76.30;;;;;;5106522;28;27477;-48
2020/12/03 14:37:03;;;;;;;16.15;7.97;;;5.70;77.30;;;;;;5106633;28;27487;-48
2020/12/03 14:39:48;;;;;;;11.55;7.60;;;5.50;78.20;;;;;;5106579;28;27416;-48
2020/12/03 14:42:33;;;;;;;12.52;7.82;;;5.40;78.40;;;;;;5106542;28;27662;-48
2020/12/03 14:45:18;;;;;;;12.57;8.60;;;5.30;79.10;;;;;;5106408;28;27422;-48
2020/12/03 14:48:03;;;;;;;12.55;8.50;;;5.30;79.10;;;;;;5105911;28;27495;-48
2020/12/03 14:50:50;;;;;;;13.45;8.90;;;5.30;79.20;;;;;;5102352;28;27477;-47